ADDS METAR Data INFO
IDs: Format: Raw Decoded Include TAF

Data at: 2240 UTC 11 Dec 2017

PAWD 112153Z AUTO 18015G25KT 10SM -RA SCT033 OVC042 06/06 A2967 RMK AO2 PK WND 17030/2104 SLP046 P0001 T00560056 TSNO
PAWD 112102Z AUTO 17022KT 8SM -RA FEW026 OVC036 06/03 A2964 RMK AO2 PK WND 17030/2059 P0000 T00560033 TSNO
PAWD 112053Z AUTO 16025G32KT 2SM RA BR FEW013 BKN028 OVC038 04/03 A2963 RMK AO2 PK WND 16040/2043 VIS 1V5 RAB29 SLP034 P0004 60005 T00440028 51063 TSNO
PAWD 112048Z AUTO 16024G40KT 2SM RA BR FEW013 BKN028 OVC070 05/03 A2963 RMK AO2 PK WND 16040/2043 RAB29 P0003 TSNO
PAWD 111953Z AUTO 18017G23KT 10SM SCT023 BKN033 OVC040 06/03 A2960 RMK AO2 PK WND 17033/1854 RAB18E48 SLP023 P0000 T00560028 TSNO
PAWD 111853Z AUTO 17023G36KT 10SM FEW034 OVC043 06/02 A2954 RMK AO2 PK WND 16043/1806 RAE40 PRESRR SLP001 P0001 T00610022 TSNO
PAWD 111821Z AUTO 17028G40KT 10SM -RA FEW026 OVC034 06/02 A2949 RMK AO2 PK WND 16043/1806 PRESRR P0001 T00610022 TSNO
PAWD 111753Z AUTO 17033G43KT 4SM -RA BR BKN028 OVC033 06/03 A2945 RMK AO2 PK WND 17043/1746 PRESRR SLP971 P0005 60058 T00560033 10067 20044 53085 TSNO
PAWD 111735Z AUTO 17026G41KT 10SM -RA FEW016 BKN029 OVC036 06/03 A2942 RMK AO2 PK WND 17041/1726 PRESRR P0004 T00610033 TSNO
PAWD 111728Z AUTO 17032G41KT 4SM -RA BR FEW016 BKN026 OVC038 06/04 A2941 RMK AO2 PK WND 17041/1726 PRESRR P0004 T00610039 TSNO
PAWD 111720Z AUTO 18027G40KT 2 1/2SM -RA BR FEW016 BKN032 OVC040 06/04 A2940 RMK AO2 PK WND 17040/1654 VIS 2V5 PRESRR P0003 T00560039 TSNO
PAWD 111653Z AUTO 16030G43KT 9SM -RA FEW024 BKN037 OVC045 06/03 A2936 RMK AO2 PK WND 16047/1610 PRESRR SLP943 P0002 T00610033 TSNO $
PAWD 111623Z AUTO 17033G45KT 8SM -RA FEW024 OVC031 06/04 A2932 RMK AO2 PK WND 16047/1610 PRESRR P0002 T00610039 TSNO $
PAWD 111553Z AUTO 17035G48KT 4SM -RA BR OVC024 06/04 A2927 RMK AO2 PK WND 16048/1534 SLP913 P0012 T00610039 TSNO $
PAWD 111530Z AUTO 16031G44KT 3SM -RA BR FEW016 OVC022 06/06 A2924 RMK AO2 PK WND 16045/1520 P0008 T00560056 TSNO $
PAWD 111521Z AUTO 16036G45KT 2 1/2SM -RA BR FEW014 BKN020 OVC025 06/06 A2923 RMK AO2 PK WND 16045/1520 PRESRR P0007 T00560056 TSNO $
PAWD 111508Z AUTO 17031G45KT 1 1/2SM RA BR BKN017 OVC025 06/06 A2922 RMK AO2 PK WND 16045/1459 P0004 T00560056 TSNO $
PAWD 111453Z AUTO 17031G42KT 2SM -RA BR BKN017 OVC024 06/06 A2919 RMK AO2 PK WND 17046/1425 PRESRR SLP886 P0014 60039 T00560056 51059 TSNO $
PAWD 111450Z AUTO 17029G44KT 2SM -RA BR BKN017 OVC024 06/06 A2919 RMK AO2 PK WND 17046/1425 PRESRR P0014 TSNO $
PAWD 111432Z AUTO 17032G46KT 1 1/2SM RA BR OVC017 06/06 A2916 RMK AO2 PK WND 17046/1425 PRESRR P0011 T00560056 TSNO $
PAWD 111414Z AUTO 17032G44KT 2 1/2SM RA BR OVC022 06/06 A2913 RMK AO2 PK WND 17044/1412 PRESRR P0006 T00610056 TSNO $
PAWD 111353Z AUTO 16031G40KT 3SM RA BR FEW014 OVC024 06/06 A2910 RMK AO2 PK WND 16040/1343 PRESRR SLP854 P0013 T00560056 TSNO $
PAWD 111253Z AUTO 00000KT 3SM RA BR BKN025 OVC031 06/04 A2902 RMK AO2 SLP827 P0012 T00560044 TSNO $
PAWD 111153Z AUTO 21014G21KT 4SM -RA BR FEW007 SCT017 OVC025 05/04 A2897 RMK AO2 SLP809 P0009 60056 70134 T00500044 10050 20028 53004 TSNO $
PAWD 111142Z AUTO 3SM -RA BR FEW007 FEW016 OVC025 03/03 A2897 RMK AO2 P0008 T00330028 TSNO $
PAWD 111136Z AUTO 00000KT 2 1/2SM RA BR OVC025 03/03 A2897 RMK AO2 P0007 T00280028 TSNO $
PAWD 111053Z AUTO 00000KT 3SM RA BR OVC027 03/03 A2895 RMK AO2 SLP803 P0013 T00280028 TSNO $
PAWD 111043Z AUTO 07003KT 4SM RA BR OVC029 03/03 A2895 RMK AO2 P0010 T00280028 TSNO $
PAWD 110953Z AUTO 31006KT 6SM -RA BR OVC031 03/03 A2895 RMK AO2 SLP805 P0010 T00280028 TSNO $
PAWD 110948Z AUTO 36004KT 6SM -RA BR OVC031 03/03 A2896 RMK AO2 P0009 TSNO $
PAWD 110936Z AUTO 05005KT 4SM RA BR OVC027 03/03 A2896 RMK AO2 P0008 T00280028 TSNO $
PAWD 110853Z AUTO 03003KT 3SM -RA BR OVC024 03/03 A2896 RMK AO2 SLP808 P0008 60024 T00330033 400670028 56028 TSNO $
PAWD 110840Z AUTO 02003KT 4SM RA BR OVC025 04/04 A2897 RMK AO2 P0007 T00390039 TSNO $
PAWD 110812Z AUTO 00000KT 4SM RA BR OVC028 04/04 A2897 RMK AO2 P0003 T00440039 TSNO $
PAWD 110753Z AUTO 29003KT 5SM RA BR OVC031 05/03 A2897 RMK AO2 SLP809 P0009 T00500033 TSNO $
PAWD 110653Z AUTO 34012G19KT 6SM RA BR FEW025 BKN030 OVC037 04/03 A2900 RMK AO2 SLP820 P0007 T00440028 TSNO $
PAWD 110624Z AUTO 33014G21KT 7SM -RA BKN030 OVC041 04/03 A2902 RMK AO2 P0003 T00440028 TSNO $
PAWD 110614Z AUTO 31012G16KT 5SM -RA BR BKN028 OVC036 04/03 A2903 RMK AO2 P0002 T00440028 TSNO $
PAWD 110553Z AUTO 36005KT 4SM -RA BR BKN024 OVC032 04/03 A2905 RMK AO2 PRESFR SLP836 P0006 60040 T00440028 10056 20028 55047 TSNO $
PAWD 110551Z AUTO 36010KT 4SM RA BR BKN024 OVC032 05/03 A2905 RMK AO2 PRESFR P0006 TSNO $
PAWD 110536Z AUTO VRB05G17KT 4SM RA BR BKN027 OVC035 05/03 A2907 RMK AO2 P0004 T00500028 TSNO $
PAWD 110453Z AUTO 9SM -RA OVC038 05/02 A2909 RMK AO2 PRESFR SLP850 P0001 T00500022 TSNO $
PAWD 110402Z AUTO VRB04KT 8SM -RA OVC030 05/03 A2918 RMK AO2 P0000 T00500028 TSNO $
PAWD 110353Z AUTO VRB06G17KT 8SM -RA OVC028 05/03 A2919 RMK AO2 SLP883 P0009 T00500028 TSNO $
PAWD 110253Z AUTO 36009G22KT 7SM RA OVC023 06/03 A2925 RMK AO2 PK WND 02027/0238 PRESFR SLP903 P0015 60024 T00560028 58087 TSNO $
PAWD 110153Z AUTO 33011G21KT 5SM RA BR OVC024 06/03 A2935 RMK AO2 SLP938 P0008 T00560033 TSNO $
PAWD 110125Z AUTO 35005KT 6SM -RA BR FEW014 OVC026 04/03 A2939 RMK AO2 P0003 T00390033 TSNO $
PAWD 110115Z AUTO 32006KT 6SM -RA BR FEW014 OVC028 03/03 A2939 RMK AO2 PRESFR P0002 T00280028 TSNO $
PAWD 110053Z AUTO 13005KT 8SM -RA FEW014 OVC032 03/03 A2943 RMK AO2 SLP965 P0001 T00280028 TSNO $
PAWD 102353Z AUTO 00000KT 10SM -RA OVC036 03/03 A2950 RMK AO2 PRESFR SLP990 P0003 60007 T00280028 10050 20028 58078 TSNO $
PAWD 102344Z AUTO 36003KT 7SM -RA FEW027 OVC032 03/03 A2952 RMK AO2 PRESFR P0003 T00280028 TSNO $
PAWD 102331Z AUTO 00000KT 10SM -RA OVC028 03/03 A2954 RMK AO2 PRESFR P0003 T00330033 TSNO $
PAWD 102319Z AUTO 00000KT 6SM -RA BR OVC026 04/03 A2956 RMK AO2 P0002 T00390033 TSNO $
PAWD 102311Z AUTO 24003KT 5SM -RA BR OVC028 04/03 A2957 RMK AO2 PRESFR P0002 T00390033 TSNO $
PAWD 102253Z AUTO 00000KT 7SM -RA OVC036 03/03 A2960 RMK AO2 RAB18 SLP024 P0001 T00330033 TSNO $
PAWD 102153Z AUTO 03007KT 10SM BKN049 OVC070 04/03 A2967 RMK AO2 RAE2058B14E26 SLP048 P0000 T00390033 TSNO $
PAWD 102053Z AUTO 01003KT 10SM -RA BKN045 OVC055 03/03 A2973 RMK AO2 SLP068 P0001 60003 T00330033 58009 TSNO $
PAWD 101953Z AUTO 00000KT 10SM -RA FEW035 BKN042 OVC065 03/ A2976 RMK AO2 RAB00E28B47 SLP077 P0000 T0033 TSNO $
PAWD 101853Z AUTO 26004KT 10SM OVC035 03/ A2976 RMK AO2 RAB1759E47 SLP078 P0002 T0033 TSNO $
PAWD 101756Z AUTO 06005KT 10SM SCT018 BKN032 OVC040 04/ A2976 RMK AO2 T0044 TSNO $
PAWD 101753Z AUTO VRB03KT 10SM SCT018 BKN025 OVC044 05/ A2976 RMK AO2 PK WND 19027/1705 RAE43 SLP077 P0003 60031 T0050 10067 20044 51034 TSNO $
PAWD 101746Z AUTO 20005KT 10SM SCT019 BKN031 OVC040 05/ A2976 RMK AO2 PK WND 19027/1705 RAE43 P0003 T0050 TSNO $
PAWD 101725Z AUTO 20014G21KT 7SM -RA SCT020 BKN025 OVC034 05/ A2975 RMK AO2 PK WND 19027/1705 P0003 T0050 TSNO $
PAWD 101653Z AUTO 20015G20KT 10SM -RA FEW023 FEW029 OVC036 06/ A2972 RMK AO2 PK WND 16027/1555 SLP064 P0001 T0056 TSNO $
PAWD 101553Z AUTO 16013G29KT 10SM -RA FEW027 BKN032 OVC041 06/ A2971 RMK AO2 PK WND 18037/1458 SLP059 P0002 T0061 TSNO $
PAWD 101453Z AUTO 17028G37KT 9SM -RA SCT026 OVC033 07/ A2966 RMK AO2 PK WND 17038/1442 SLP043 P0007 60025 T0067 53048 TSNO $
PAWD 101353Z AUTO 18026G33KT 7SM -RA OVC032 07/06 A2959 RMK AO2 PK WND 16039/1333 SLP020 P0007 T00670061 TSNO $
PAWD 101310Z AUTO 17024G32KT 6SM -RA BR OVC030 06/06 A2957 RMK AO2 PK WND 18032/1309 P0003 T00610056 TSNO
PAWD 101253Z AUTO 18020G36KT 5SM -RA BR OVC028 06/05 A2957 RMK AO2 PK WND 17036/1244 SLP012 P0011 T00610050 TSNO
PAWD 101246Z AUTO 17023G36KT 6SM -RA BR FEW022 OVC028 06/04 A2956 RMK AO2 PK WND 17036/1244 P0011 T00610039 TSNO
PAWD 101153Z AUTO 10005KT 5SM RA BR OVC026 04/04 A2952 RMK AO2 SLP995 P0016 60055 70056 T00440039 10067 20033 53036 TSNO
PAWD 101053Z AUTO 21005KT 3SM RA BR OVC026 06/03 A2946 RMK AO2 SLP977 P0017 T00560033 TSNO
PAWD 101048Z AUTO 21008KT 3SM +RA BR OVC026 05/03 A2946 RMK AO2 P0015 TSNO